createdAt,value
2017-05-26T00:00:19.574Z,1002.31
2017-05-26T00:01:29.920Z,1002.28
2017-05-26T00:02:40.268Z,1002.27
2017-05-26T00:03:50.618Z,1002.27
2017-05-26T00:05:00.971Z,1002.26
2017-05-26T00:06:11.046Z,1002.24
2017-05-26T00:07:21.083Z,1002.22
2017-05-26T00:08:31.429Z,1002.23
2017-05-26T00:09:41.451Z,1002.24
2017-05-26T00:10:51.493Z,1002.26
2017-05-26T00:12:01.854Z,1002.24
2017-05-26T00:13:12.213Z,1002.25
2017-05-26T00:14:22.269Z,1002.24
2017-05-26T00:15:32.300Z,1002.22
2017-05-26T00:16:42.338Z,1002.19
2017-05-26T00:17:52.430Z,1002.17
2017-05-26T00:19:02.784Z,1002.17
2017-05-26T00:20:12.827Z,1002.15
2017-05-26T00:21:23.171Z,1002.15
2017-05-26T00:22:33.587Z,1002.15
2017-05-26T00:23:43.308Z,1002.1
2017-05-26T00:24:53.353Z,1002.12
2017-05-26T00:26:03.717Z,1002.08
2017-05-26T00:27:13.755Z,1002.1
2017-05-26T00:28:23.786Z,1002.06
2017-05-26T00:29:34.188Z,1002.09
2017-05-26T00:30:44.219Z,1002.07
2017-05-26T00:31:54.250Z,1002.05
2017-05-26T00:33:04.616Z,1002.02
2017-05-26T00:34:14.975Z,1002.02
2017-05-26T00:35:25.415Z,1001.97
2017-05-26T00:36:35.504Z,1002.06
2017-05-26T00:37:45.854Z,1002.04
2017-05-26T00:38:55.887Z,1002.06
2017-05-26T00:40:06.298Z,1002.02
2017-05-26T00:41:16.335Z,1001.99
2017-05-26T00:42:26.682Z,1002
2017-05-26T00:43:36.709Z,1002.01
2017-05-26T00:44:47.062Z,1001.98
2017-05-26T00:45:57.418Z,1001.97
2017-05-26T00:47:07.783Z,1001.93
2017-05-26T00:48:17.815Z,1001.93
2017-05-26T00:49:27.528Z,1001.92
2017-05-26T00:50:37.893Z,1001.92
2017-05-26T00:51:48.281Z,1001.9
2017-05-26T00:52:58.637Z,1001.92
2017-05-26T00:54:08.682Z,1001.91
2017-05-26T00:55:18.398Z,1001.92
2017-05-26T00:56:28.490Z,1001.94
2017-05-26T00:57:38.525Z,1001.97
2017-05-26T00:58:48.571Z,1001.94
2017-05-26T00:59:58.533Z,1001.93
2017-05-26T01:01:08.870Z,1001.93
2017-05-26T01:02:18.593Z,1001.87
2017-05-26T01:03:28.942Z,1001.89
2017-05-26T01:04:39.290Z,1001.89
2017-05-26T01:05:49.638Z,1001.86
2017-05-26T01:06:59.981Z,1001.83
2017-05-26T01:08:10.021Z,1001.81
2017-05-26T01:09:20.054Z,1001.88
2017-05-26T01:10:30.129Z,1001.83
2017-05-26T01:11:40.174Z,1001.85
2017-05-26T01:12:50.515Z,1001.83
2017-05-26T01:14:00.858Z,1001.82
2017-05-26T01:15:11.234Z,1001.84
2017-05-26T01:16:21.276Z,1001.84
2017-05-26T01:17:31.617Z,1001.81
2017-05-26T01:18:41.960Z,1001.82
2017-05-26T01:19:52.306Z,1001.84
2017-05-26T01:21:02.657Z,1001.83
2017-05-26T01:22:12.986Z,1001.85
2017-05-26T01:23:23.324Z,1001.86
2017-05-26T01:24:33.686Z,1001.83
2017-05-26T01:25:43.726Z,1001.8
2017-05-26T01:26:54.070Z,1001.82
2017-05-26T01:28:04.472Z,1001.81
2017-05-26T01:29:15.031Z,1001.84
2017-05-26T01:30:25.374Z,1001.81
2017-05-26T01:31:35.718Z,1001.82
2017-05-26T01:32:46.074Z,1001.81
2017-05-26T01:33:56.433Z,1001.8
2017-05-26T01:35:06.772Z,1001.85
2017-05-26T01:36:16.177Z,1001.8
2017-05-26T01:37:26.571Z,1001.79
2017-05-26T01:38:36.602Z,1001.79
2017-05-26T01:39:46.695Z,1001.82
2017-05-26T01:40:57.042Z,1001.8
2017-05-26T01:42:07.076Z,1001.82
2017-05-26T01:43:17.113Z,1001.86
2017-05-26T01:44:27.462Z,1001.81
2017-05-26T01:45:37.872Z,1001.82
2017-05-26T01:46:47.603Z,1001.79
2017-05-26T01:47:57.964Z,1001.8
2017-05-26T01:49:08.318Z,1001.85
2017-05-26T01:50:18.666Z,1001.82
2017-05-26T01:51:28.714Z,1001.82
2017-05-26T01:52:39.055Z,1001.81
2017-05-26T01:53:49.090Z,1001.79
2017-05-26T01:54:59.428Z,1001.78
2017-05-26T01:56:09.473Z,1001.76
2017-05-26T01:57:19.510Z,1001.76
2017-05-26T01:58:29.847Z,1001.72
2017-05-26T01:59:40.190Z,1001.74
2017-05-26T02:00:50.550Z,1001.73
2017-05-26T02:02:00.592Z,1001.73
2017-05-26T02:03:10.930Z,1001.73
2017-05-26T02:04:21.275Z,1001.71
2017-05-26T02:05:31.322Z,1001.74
2017-05-26T02:06:41.389Z,1001.71
2017-05-26T02:07:51.731Z,1001.7
2017-05-26T02:09:01.814Z,1001.71
2017-05-26T02:10:12.160Z,1001.69
2017-05-26T02:11:22.194Z,1001.68
2017-05-26T02:12:32.535Z,1001.67
2017-05-26T02:13:42.890Z,1001.69
2017-05-26T02:14:53.303Z,1001.69
2017-05-26T02:16:03.335Z,1001.7
2017-05-26T02:17:13.689Z,1001.67
2017-05-26T02:18:24.027Z,1001.68
2017-05-26T02:19:34.365Z,1001.69
2017-05-26T02:20:44.408Z,1001.68
2017-05-26T02:21:54.453Z,1001.66
2017-05-26T02:23:04.800Z,1001.68
2017-05-26T02:24:15.146Z,1001.7
2017-05-26T02:25:25.528Z,1001.71
2017-05-26T02:26:35.918Z,1001.74
2017-05-26T02:27:45.948Z,1001.68
2017-05-26T02:28:56.305Z,1001.69
2017-05-26T02:30:06.333Z,1001.73
2017-05-26T02:31:16.366Z,1001.7
2017-05-26T02:32:26.756Z,1001.74
2017-05-26T02:33:37.099Z,1001.71
2017-05-26T02:34:47.143Z,1001.72
2017-05-26T02:35:57.168Z,1001.65
2017-05-26T02:37:07.202Z,1001.7
2017-05-26T02:38:17.566Z,1001.72
2017-05-26T02:39:27.916Z,1001.7
2017-05-26T02:40:38.304Z,1001.69
2017-05-26T02:41:48.028Z,1001.7
2017-05-26T02:42:58.379Z,1001.72
2017-05-26T02:44:08.728Z,1001.73
2017-05-26T02:45:19.062Z,1001.77
2017-05-26T02:46:29.094Z,1001.76
2017-05-26T02:47:39.443Z,1001.78
2017-05-26T02:48:49.794Z,1001.82
2017-05-26T02:49:59.887Z,1001.79
2017-05-26T02:51:09.917Z,1001.77
2017-05-26T02:52:20.325Z,1001.79
2017-05-26T02:53:30.039Z,1001.8
2017-05-26T02:54:40.068Z,1001.79
2017-05-26T02:55:50.419Z,1001.77
2017-05-26T02:57:00.761Z,1001.79
2017-05-26T02:58:10.798Z,1001.77
2017-05-26T02:59:21.144Z,1001.75
2017-05-26T03:00:31.552Z,1001.8
2017-05-26T03:01:41.887Z,1001.81
2017-05-26T03:32:57.547Z,1001.78
2017-05-26T03:34:07.873Z,1001.81
2017-05-26T03:35:17.893Z,1001.84
2017-05-26T03:36:28.223Z,1001.81
2017-05-26T03:37:38.555Z,1001.82
2017-05-26T03:38:48.894Z,1001.87
2017-05-26T03:39:59.248Z,1001.82
2017-05-26T03:41:09.281Z,1001.82
2017-05-26T03:42:19.618Z,1001.84
2017-05-26T03:43:29.963Z,1001.88
2017-05-26T03:44:40.314Z,1001.82
2017-05-26T03:45:50.672Z,1001.84
2017-05-26T03:47:01.027Z,1001.83
2017-05-26T03:48:11.367Z,1001.82
2017-05-26T03:49:21.415Z,1001.82
2017-05-26T03:50:31.820Z,1001.86
2017-05-26T03:51:41.859Z,1001.84
2017-05-26T03:52:51.576Z,1001.82
2017-05-26T03:54:01.901Z,1001.77
2017-05-26T03:55:11.623Z,1001.81
2017-05-26T03:56:22.020Z,1001.81
2017-05-26T03:57:32.065Z,1001.83
2017-05-26T03:58:42.404Z,1001.79
2017-05-26T03:59:52.760Z,1001.82
2017-05-26T04:01:02.797Z,1001.79
2017-05-26T04:02:13.152Z,1001.83
2017-05-26T04:03:23.187Z,1001.86
2017-05-26T04:04:33.542Z,1001.86
2017-05-26T04:05:43.589Z,1001.87
2017-05-26T04:06:53.928Z,1001.84
2017-05-26T04:08:04.373Z,1001.85
2017-05-26T04:09:14.460Z,1001.88
2017-05-26T04:10:24.812Z,1001.87
2017-05-26T04:11:35.157Z,1001.88
2017-05-26T04:12:45.511Z,1001.89
2017-05-26T04:13:55.857Z,1001.93
2017-05-26T04:15:05.889Z,1001.89
2017-05-26T04:16:16.241Z,1001.86
2017-05-26T04:17:26.284Z,1001.89
2017-05-26T04:18:36.315Z,1001.89
2017-05-26T04:19:46.711Z,1002.05
2017-05-26T04:20:57.051Z,1002.14
2017-05-26T04:22:07.399Z,1002.13
2017-05-26T04:23:17.744Z,1002.15
2017-05-26T04:24:28.192Z,1002.09
2017-05-26T04:25:38.581Z,1001.96
2017-05-26T04:26:48.620Z,1001.88
2017-05-26T04:27:58.969Z,1001.88
2017-05-26T04:29:08.999Z,1001.88
2017-05-26T04:30:19.338Z,1002.22
2017-05-26T04:31:29.113Z,1001.85
2017-05-26T04:32:39.146Z,1001.93
2017-05-26T04:33:49.184Z,1002.06
2017-05-26T04:34:59.530Z,1001.8
2017-05-26T04:36:09.877Z,1001.83
2017-05-26T04:37:19.919Z,1001.87
2017-05-26T04:38:30.266Z,1001.89
2017-05-26T04:39:40.625Z,1001.84
2017-05-26T04:40:50.658Z,1001.9
2017-05-26T04:42:01.025Z,1001.95
2017-05-26T04:43:11.380Z,1002.23
2017-05-26T04:44:21.738Z,1002.17
2017-05-26T04:45:32.090Z,1002.33
2017-05-26T04:46:42.431Z,1002.34
2017-05-26T04:47:52.784Z,1002.33
2017-05-26T04:49:02.875Z,1002.33
2017-05-26T04:50:12.909Z,1002.3
2017-05-26T04:51:22.929Z,1002.32
2017-05-26T04:52:33.276Z,1002.31
2017-05-26T04:53:43.310Z,1002.31
2017-05-26T04:54:53.703Z,1002.4
2017-05-26T04:56:04.061Z,1002.45
2017-05-26T04:57:14.414Z,1002.53
2017-05-26T04:58:24.759Z,1002.53
2017-05-26T04:59:34.786Z,1002.54
2017-05-26T05:00:45.182Z,1002.45
2017-05-26T05:01:55.535Z,1002.42
2017-05-26T05:03:05.905Z,1002.33
2017-05-26T05:04:15.943Z,1002.32
2017-05-26T05:05:26.316Z,1002.29
2017-05-26T05:06:36.727Z,1002.26
2017-05-26T05:07:46.774Z,1002.28
2017-05-26T05:08:56.831Z,1002.27
2017-05-26T05:10:06.890Z,1001.88
2017-05-26T05:11:16.930Z,1002.09
2017-05-26T05:12:27.280Z,1002.31
2017-05-26T05:13:37.623Z,1002.28
2017-05-26T05:14:47.884Z,1002.29
2017-05-26T05:15:57.936Z,1002.28
2017-05-26T05:17:08.281Z,1002.33
2017-05-26T05:18:18.640Z,1002.33
2017-05-26T05:19:29.001Z,1002.38
2017-05-26T05:20:39.360Z,1002.39
2017-05-26T05:21:49.706Z,1002.46
2017-05-26T05:22:59.734Z,1002.47
2017-05-26T05:24:09.832Z,1002.52
2017-05-26T05:25:20.181Z,1002.49
2017-05-26T05:26:30.218Z,1002.46
2017-05-26T05:27:40.246Z,1002.52
2017-05-26T05:28:50.591Z,1002.55
2017-05-26T05:30:00.703Z,1002.55
2017-05-26T05:31:11.105Z,1002.58
2017-05-26T05:32:21.451Z,1002.56
2017-05-26T05:33:31.808Z,1002.53
2017-05-26T05:34:42.163Z,1002.57
2017-05-26T05:35:52.527Z,1002.52
2017-05-26T05:37:02.883Z,1002.51
2017-05-26T05:38:13.237Z,1002.55
2017-05-26T05:39:22.971Z,1002.6
2017-05-26T05:40:33.336Z,1002.54
2017-05-26T05:41:43.486Z,1002.51
2017-05-26T05:42:53.853Z,1002.53
2017-05-26T05:44:03.888Z,1002.53
2017-05-26T05:45:13.607Z,1002.55
2017-05-26T05:46:23.955Z,1002.55
2017-05-26T05:47:34.375Z,1002.55
2017-05-26T05:48:44.735Z,1002.62
2017-05-26T05:49:54.778Z,1002.66
2017-05-26T05:51:04.818Z,1002.57
2017-05-26T05:52:14.842Z,1002.59
2017-05-26T05:53:24.879Z,1002.61
2017-05-26T05:54:35.229Z,1002.64
2017-05-26T05:55:45.266Z,1002.64
2017-05-26T05:56:55.622Z,1002.56
2017-05-26T05:58:05.978Z,1002.63
2017-05-26T05:59:16.057Z,1002.67
2017-05-26T06:00:26.114Z,1002.71
2017-05-26T06:01:35.536Z,1002.68
2017-05-26T06:02:45.880Z,1002.7
2017-05-26T06:03:56.231Z,1002.65
2017-05-26T06:05:06.278Z,1002.69
2017-05-26T06:06:16.647Z,1002.7
2017-05-26T06:07:26.677Z,1002.69
2017-05-26T06:08:37.038Z,1002.78
2017-05-26T06:09:47.390Z,1003.15
2017-05-26T06:10:57.739Z,1003.38
2017-05-26T06:12:08.138Z,1003.09
2017-05-26T06:13:18.485Z,1002.56
2017-05-26T06:14:28.726Z,1002.44
2017-05-26T06:15:38.765Z,1002.45
2017-05-26T06:16:48.524Z,1002.46
2017-05-26T06:17:58.866Z,1002.53
2017-05-26T06:19:08.907Z,1002.53
2017-05-26T06:20:19.263Z,1002.6
2017-05-26T06:21:29.616Z,1002.58
2017-05-26T06:22:40.029Z,1002.61
2017-05-26T06:23:50.365Z,1002.64
2017-05-26T06:25:00.716Z,1002.77
2017-05-26T06:26:11.307Z,1002.75
2017-05-26T06:27:21.644Z,1002.71
2017-05-26T06:28:32.044Z,1002.71
2017-05-26T06:29:42.402Z,1002.7
2017-05-26T06:30:52.749Z,1002.68
2017-05-26T06:32:02.792Z,1002.69
2017-05-26T06:33:13.148Z,1002.73
2017-05-26T06:34:23.239Z,1002.74
2017-05-26T06:35:33.595Z,1002.71
2017-05-26T06:36:43.939Z,1002.69
2017-05-26T06:37:54.290Z,1002.68
2017-05-26T06:39:04.648Z,1002.73
2017-05-26T06:40:14.741Z,1002.73
2017-05-26T06:41:24.784Z,1002.7
2017-05-26T06:42:34.823Z,1002.77
2017-05-26T06:43:44.860Z,1002.75
2017-05-26T06:44:54.917Z,1002.78
2017-05-26T06:46:05.003Z,1002.75
2017-05-26T06:47:15.035Z,1002.77
2017-05-26T06:48:25.388Z,1002.76
2017-05-26T06:49:35.424Z,1002.77
2017-05-26T06:50:45.790Z,1002.79
2017-05-26T06:51:55.836Z,1002.74
2017-05-26T06:53:06.174Z,1002.74
2017-05-26T06:54:16.526Z,1002.78
2017-05-26T06:55:26.867Z,1002.72
2017-05-26T06:56:36.598Z,1002.74
2017-05-26T06:57:46.990Z,1002.74
2017-05-26T06:58:57.335Z,1002.76
2017-05-26T07:00:07.375Z,1002.79
2017-05-26T07:01:17.720Z,1002.83
2017-05-26T07:02:28.066Z,1002.81
2017-05-26T07:03:38.468Z,1002.79
2017-05-26T07:04:48.826Z,1002.76
2017-05-26T07:05:59.173Z,1002.89
2017-05-26T07:07:09.524Z,1002.89
2017-05-26T07:08:19.559Z,1002.84
2017-05-26T07:09:29.650Z,1002.86
2017-05-26T07:10:40.006Z,1002.79
2017-05-26T07:11:50.368Z,1002.79
2017-05-26T07:13:00.733Z,1002.81
2017-05-26T07:14:10.768Z,1002.76
2017-05-26T07:15:21.181Z,1002.78
2017-05-26T07:16:31.541Z,1002.75
2017-05-26T07:17:41.930Z,1002.71
2017-05-26T07:18:52.298Z,1002.73
2017-05-26T07:20:02.659Z,1002.73
2017-05-26T07:21:13.001Z,1002.73
2017-05-26T07:22:23.377Z,1002.72
2017-05-26T07:23:33.747Z,1002.71
2017-05-26T07:24:44.122Z,1002.74
2017-05-26T07:25:54.525Z,1002.75
2017-05-26T07:27:04.934Z,1002.73
2017-05-26T07:28:15.306Z,1002.75
2017-05-26T07:29:25.652Z,1002.73
2017-05-26T07:30:36.008Z,1002.78
2017-05-26T07:31:46.350Z,1002.81
2017-05-26T07:32:56.702Z,1002.79
2017-05-26T07:34:06.755Z,1002.8
2017-05-26T07:35:16.786Z,1002.86
2017-05-26T07:36:26.820Z,1002.81
2017-05-26T07:37:36.859Z,1002.78
2017-05-26T07:38:46.917Z,1002.81
2017-05-26T07:39:56.971Z,1002.78
2017-05-26T07:41:07.337Z,1002.77
2017-05-26T07:42:17.706Z,1002.84
2017-05-26T07:43:28.078Z,1002.78
2017-05-26T07:44:38.499Z,1002.76
2017-05-26T07:45:48.873Z,1002.74
2017-05-26T07:46:59.245Z,1002.73
2017-05-26T07:48:09.602Z,1002.62
2017-05-26T07:49:19.973Z,1002.67
2017-05-26T07:50:30.385Z,1002.65
2017-05-26T07:51:40.116Z,1002.64
2017-05-26T07:52:49.859Z,1002.63
2017-05-26T07:54:00.225Z,1002.63
2017-05-26T07:55:10.260Z,1002.72
2017-05-26T07:56:20.660Z,1002.65
2017-05-26T07:57:31.012Z,1002.62
2017-05-26T07:58:41.054Z,1002.66
2017-05-26T07:59:51.419Z,1002.61
2017-05-26T08:01:01.790Z,1002.62
2017-05-26T08:02:12.230Z,1002.62
2017-05-26T08:03:22.285Z,1002.66
2017-05-26T08:04:32.640Z,1002.69
2017-05-26T08:05:42.682Z,1002.7
2017-05-26T08:06:53.073Z,1002.59
2017-05-26T08:08:03.457Z,1002.61
2017-05-26T08:09:13.825Z,1002.61
2017-05-26T08:10:23.883Z,1002.55
2017-05-26T08:11:33.923Z,1002.66
2017-05-26T08:12:44.279Z,1002.52
2017-05-26T08:13:54.690Z,1002.51
2017-05-26T08:15:05.057Z,1002.51
2017-05-26T08:16:15.108Z,1002.49
2017-05-26T08:17:25.529Z,1002.47
2017-05-26T08:18:35.973Z,1002.56
2017-05-26T08:19:46.390Z,1002.57
2017-05-26T08:20:56.428Z,1002.53
2017-05-26T08:22:06.811Z,1002.54
2017-05-26T08:23:17.177Z,1002.51
2017-05-26T08:24:27.241Z,1002.57
2017-05-26T08:25:37.334Z,1002.54
2017-05-26T08:26:47.671Z,1002.58
2017-05-26T08:27:57.727Z,1002.53
2017-05-26T08:29:07.458Z,1002.56
2017-05-26T08:30:17.509Z,1002.55
2017-05-26T08:31:27.854Z,1002.53
2017-05-26T08:32:37.912Z,1002.45
2017-05-26T08:33:47.947Z,1002.47
2017-05-26T08:34:58.312Z,1002.51
2017-05-26T08:36:08.666Z,1002.44
2017-05-26T08:37:19.021Z,1002.41
2017-05-26T08:38:29.387Z,1002.5
2017-05-26T08:39:39.750Z,1002.45
2017-05-26T08:40:50.115Z,1002.31
2017-05-26T08:42:00.471Z,1002.41
2017-05-26T08:43:10.892Z,1002.36
2017-05-26T08:44:21.246Z,1002.43
2017-05-26T08:45:31.593Z,1002.3
2017-05-26T08:46:41.655Z,1002.3
2017-05-26T08:47:51.715Z,1002.33
2017-05-26T08:49:02.372Z,1002.26
2017-05-26T08:50:12.721Z,1002.32
2017-05-26T08:51:23.163Z,1002.34
2017-05-26T08:52:33.509Z,1002.32
2017-05-26T08:53:43.867Z,1002.3
2017-05-26T08:54:53.915Z,1002.33
2017-05-26T08:56:04.279Z,1002.35
2017-05-26T08:57:14.332Z,1002.3
2017-05-26T08:58:24.422Z,1002.28
2017-05-26T08:59:34.804Z,1002.28
2017-05-26T09:00:45.256Z,1002.23
2017-05-26T09:01:55.625Z,1002.23
2017-05-26T09:03:05.978Z,1002.29
2017-05-26T09:04:16.352Z,1002.25
2017-05-26T09:05:26.407Z,1002.28
2017-05-26T09:06:36.492Z,1002.2
2017-05-26T09:07:46.854Z,1002.16
2017-05-26T09:08:56.900Z,1002.19
2017-05-26T09:10:06.950Z,1002.19
2017-05-26T09:11:17.314Z,1002.3
2017-05-26T09:12:27.728Z,1002.22
2017-05-26T09:13:38.092Z,1002.24
2017-05-26T09:14:48.441Z,1002.28
2017-05-26T09:15:58.818Z,1002.24
2017-05-26T09:17:08.877Z,1002.22
2017-05-26T09:18:18.975Z,1002.12
2017-05-26T09:19:29.350Z,1002.12
2017-05-26T09:20:39.703Z,1002.14
2017-05-26T09:21:49.757Z,1002.2
2017-05-26T09:23:00.139Z,1002.15
2017-05-26T09:24:10.513Z,1002.18
2017-05-26T09:25:20.565Z,1002.16
2017-05-26T09:26:30.608Z,1002.14
2017-05-26T09:27:40.967Z,1002.17
2017-05-26T09:28:51.328Z,1002.01
2017-05-26T09:30:01.936Z,1002.22
2017-05-26T09:31:12.299Z,1002.17
2017-05-26T09:32:22.351Z,1002.1
2017-05-26T09:33:32.715Z,1002.04
2017-05-26T09:34:42.764Z,1002
2017-05-26T09:35:53.120Z,1001.98
2017-05-26T09:37:03.171Z,1002.02
2017-05-26T09:38:13.544Z,1001.95
2017-05-26T09:39:23.933Z,1002
2017-05-26T09:40:34.293Z,1001.96
2017-05-26T09:41:44.648Z,1001.96
2017-05-26T09:42:54.992Z,1001.93
2017-05-26T09:44:05.043Z,1001.98
2017-05-26T09:45:15.448Z,1001.94
2017-05-26T09:46:25.809Z,1001.87
2017-05-26T09:47:36.222Z,1001.96
2017-05-26T09:48:46.597Z,1001.97
2017-05-26T09:49:56.636Z,1001.94
2017-05-26T09:51:06.689Z,1001.94
2017-05-26T09:52:16.726Z,1001.96
2017-05-26T09:53:26.777Z,1001.85
2017-05-26T09:54:36.554Z,1001.88
2017-05-26T09:55:46.896Z,1001.93
2017-05-26T09:56:56.948Z,1001.86
2017-05-26T09:58:07.300Z,1001.87
2017-05-26T09:59:20.413Z,1001.83
2017-05-26T10:00:30.792Z,1001.88
2017-05-26T10:01:41.204Z,1001.96
2017-05-26T10:02:51.569Z,1001.91
2017-05-26T10:04:01.615Z,1001.83
2017-05-26T10:05:11.722Z,1001.8
2017-05-26T10:06:22.079Z,1001.88
2017-05-26T10:07:32.455Z,1001.78
2017-05-26T10:08:42.494Z,1001.76
2017-05-26T10:09:52.859Z,1001.75
2017-05-26T10:11:03.268Z,1001.75
2017-05-26T10:12:13.616Z,1001.71
2017-05-26T10:13:23.670Z,1001.84
2017-05-26T10:14:33.731Z,1001.93
2017-05-26T10:15:44.333Z,1001.81
2017-05-26T10:16:54.374Z,1001.79
2017-05-26T10:18:04.735Z,1001.78
2017-05-26T10:19:15.089Z,1001.81
2017-05-26T10:20:25.140Z,1001.83
2017-05-26T10:21:35.189Z,1001.68
2017-05-26T10:22:45.600Z,1001.67
2017-05-26T10:23:55.725Z,1001.78
2017-05-26T10:25:06.115Z,1001.7
2017-05-26T10:26:16.470Z,1001.89
2017-05-26T10:27:26.855Z,1001.77
2017-05-26T10:28:36.696Z,1001.69
2017-05-26T10:29:47.053Z,1001.76
2017-05-26T10:30:57.416Z,1001.67
2017-05-26T10:32:07.772Z,1001.67
2017-05-26T10:33:17.509Z,1001.58
2017-05-26T10:34:27.921Z,1001.65
2017-05-26T10:35:38.279Z,1001.7
2017-05-26T10:36:48.646Z,1001.77
2017-05-26T10:37:59.023Z,1001.71
2017-05-26T10:39:09.389Z,1001.7
2017-05-26T10:40:19.810Z,1001.73
2017-05-26T10:41:29.862Z,1001.69
2017-05-26T10:42:40.224Z,1001.66
2017-05-26T10:43:50.275Z,1001.59
2017-05-26T10:45:00.641Z,1001.56
2017-05-26T10:46:11.044Z,1001.61
2017-05-26T10:47:21.403Z,1001.63
2017-05-26T10:48:31.758Z,1001.62
2017-05-26T10:49:41.800Z,1001.65
2017-05-26T10:50:51.844Z,1001.61
2017-05-26T10:52:02.324Z,1001.51
2017-05-26T10:53:12.380Z,1001.58
2017-05-26T10:54:22.743Z,1001.56
2017-05-26T10:55:33.100Z,1001.61
2017-05-26T10:56:43.536Z,1001.53
2017-05-26T10:57:53.900Z,1001.53
2017-05-26T10:59:04.263Z,1001.56
2017-05-26T11:00:14.364Z,1001.57
2017-05-26T11:01:24.708Z,1001.6
2017-05-26T11:02:35.063Z,1001.52
2017-05-26T11:03:45.112Z,1001.54
2017-05-26T11:04:55.468Z,1001.51
2017-05-26T11:06:05.873Z,1001.53
2017-05-26T11:07:16.237Z,1001.54
2017-05-26T11:08:26.592Z,1001.47
2017-05-26T11:09:36.333Z,1001.52
2017-05-26T11:10:46.691Z,1001.48
2017-05-26T11:11:57.063Z,1001.37
2017-05-26T11:13:07.117Z,1001.37
2017-05-26T11:14:16.857Z,1001.35
2017-05-26T11:15:27.223Z,1001.38
2017-05-26T11:16:37.574Z,1001.36
2017-05-26T11:17:47.990Z,1001.33
2017-05-26T11:18:58.028Z,1001.38
2017-05-26T11:20:08.090Z,1001.31
2017-05-26T11:21:18.449Z,1001.35
2017-05-26T11:22:28.811Z,1001.37
2017-05-26T11:23:39.225Z,1001.35
2017-05-26T11:24:49.595Z,1001.31
2017-05-26T11:25:59.961Z,1001.34
2017-05-26T11:27:10.325Z,1001.32
2017-05-26T11:28:20.688Z,1001.27
2017-05-26T11:29:31.101Z,1001.27
2017-05-26T11:30:41.471Z,1001.17
2017-05-26T11:31:51.820Z,1001.21
2017-05-26T11:33:02.391Z,1001.32
2017-05-26T11:34:12.974Z,1001.23
2017-05-26T11:35:23.340Z,1001.27
2017-05-26T11:36:33.699Z,1001.25
2017-05-26T11:37:44.052Z,1001.27
2017-05-26T11:38:54.427Z,1001.14
2017-05-26T11:40:05.006Z,1001.23
2017-05-26T11:41:14.793Z,1001.15
2017-05-26T11:42:24.850Z,1001.18
2017-05-26T11:43:34.574Z,1001.11
2017-05-26T11:44:44.939Z,1001.19
2017-05-26T11:45:55.319Z,1001.22
2017-05-26T11:47:05.362Z,1001.07
2017-05-26T11:48:15.750Z,1001.02
2017-05-26T11:49:25.848Z,1000.9
2017-05-26T11:50:35.895Z,1000.85
2017-05-26T11:51:46.262Z,1001.05
2017-05-26T11:52:56.314Z,1001.09
2017-05-26T11:54:06.671Z,1001.04
2017-05-26T11:55:17.088Z,1001.05
2017-05-26T11:56:27.444Z,1001.08
2017-05-26T11:57:37.796Z,1001.06
2017-05-26T11:58:47.861Z,1001.03
2017-05-26T11:59:58.227Z,1001.04
2017-05-26T12:01:08.652Z,1001.07
2017-05-26T12:02:19.018Z,1001.08
2017-05-26T12:03:29.050Z,1001.08
2017-05-26T12:04:39.108Z,1001.04
2017-05-26T12:05:49.450Z,1001
2017-05-26T12:06:59.852Z,1001.06
2017-05-26T12:08:10.207Z,1000.98
2017-05-26T12:09:20.266Z,1000.96
2017-05-26T12:10:30.611Z,1001.02
2017-05-26T12:11:40.982Z,1000.99
2017-05-26T12:12:50.713Z,1000.96
2017-05-26T12:14:01.079Z,1000.95
2017-05-26T12:15:11.438Z,1001.06
2017-05-26T12:16:21.180Z,1000.97
2017-05-26T12:17:31.221Z,1000.93
2017-05-26T12:18:41.017Z,1000.99
2017-05-26T12:19:51.393Z,1000.96
2017-05-26T12:21:01.802Z,1000.98
2017-05-26T12:22:12.167Z,1000.94
2017-05-26T12:23:22.213Z,1000.8
2017-05-26T12:24:32.621Z,1000.92
2017-05-26T12:25:42.671Z,1000.93
2017-05-26T12:26:52.709Z,1000.97
2017-05-26T12:28:03.272Z,1000.86
2017-05-26T12:29:13.302Z,1000.92
2017-05-26T12:30:23.701Z,1000.99
2017-05-26T12:31:34.078Z,1000.97
2017-05-26T12:32:44.124Z,1000.9
2017-05-26T12:33:54.489Z,1000.83
2017-05-26T12:35:04.837Z,1000.8
2017-05-26T12:36:15.192Z,1000.96
2017-05-26T12:37:25.553Z,1000.93
2017-05-26T12:38:35.912Z,1000.89
2017-05-26T12:39:46.265Z,1000.84
2017-05-26T12:40:56.639Z,1000.87
2017-05-26T12:42:06.681Z,1000.75
2017-05-26T12:43:16.743Z,1000.75
2017-05-26T12:44:26.485Z,1000.82
2017-05-26T12:45:36.837Z,1000.75
2017-05-26T12:46:46.888Z,1000.86
2017-05-26T12:47:57.361Z,1000.81
2017-05-26T12:49:07.431Z,1000.75
2017-05-26T12:50:17.794Z,1000.78
2017-05-26T12:51:27.543Z,1000.72
2017-05-26T12:52:37.594Z,1000.76
2017-05-26T12:53:47.996Z,1000.86
2017-05-26T12:54:58.353Z,1000.77
2017-05-26T12:56:08.704Z,1000.74
2017-05-26T12:57:19.083Z,1000.62
2017-05-26T12:58:29.127Z,1000.57
2017-05-26T12:59:39.535Z,1000.65
2017-05-26T13:00:49.884Z,1000.64
2017-05-26T13:02:00.262Z,1000.7
2017-05-26T13:03:10.624Z,1000.7
2017-05-26T13:04:21.010Z,1000.71
2017-05-26T13:05:31.432Z,1000.67
2017-05-26T13:06:41.718Z,1000.63
2017-05-26T13:07:52.065Z,1000.74
2017-05-26T13:09:02.425Z,1000.68
2017-05-26T13:10:12.474Z,1000.7
2017-05-26T13:11:22.206Z,1000.71
2017-05-26T13:12:32.551Z,1000.71
2017-05-26T13:13:42.917Z,1000.75
2017-05-26T13:14:53.293Z,1000.66
2017-05-26T13:16:03.667Z,1000.64
2017-05-26T13:17:14.092Z,1000.67
2017-05-26T13:18:23.840Z,1000.61
2017-05-26T13:19:34.210Z,1000.56
2017-05-26T13:20:44.585Z,1000.56
2017-05-26T13:21:54.957Z,1000.62
2017-05-26T13:23:05.059Z,1000.55
2017-05-26T13:24:15.100Z,1000.53
2017-05-26T13:25:25.158Z,1000.55
2017-05-26T13:26:35.506Z,1000.56
2017-05-26T13:27:45.855Z,1000.58
2017-05-26T13:28:56.208Z,1000.53
2017-05-26T13:30:06.573Z,1000.56
2017-05-26T13:31:16.620Z,1000.51
2017-05-26T13:32:26.989Z,1000.43
2017-05-26T13:33:36.719Z,1000.41
2017-05-26T13:34:46.770Z,1000.42
2017-05-26T13:35:57.153Z,1000.44
2017-05-26T13:37:06.904Z,1000.41
2017-05-26T13:38:17.277Z,1000.41
2017-05-26T13:39:27.642Z,1000.44
2017-05-26T13:40:38.006Z,1000.37
2017-05-26T13:41:48.363Z,1000.39
2017-05-26T13:42:58.410Z,1000.37
2017-05-26T13:44:08.771Z,1000.46
2017-05-26T13:45:19.262Z,1000.44
2017-05-26T13:46:29.304Z,1000.38
2017-05-26T13:47:39.336Z,1000.39
2017-05-26T13:48:49.688Z,1000.39
2017-05-26T13:49:59.732Z,1000.41
2017-05-26T13:51:09.793Z,1000.38
2017-05-26T13:52:20.157Z,1000.3
2017-05-26T13:53:30.515Z,1000.35
2017-05-26T13:54:40.559Z,1000.36
2017-05-26T13:55:50.931Z,1000.35
2017-05-26T13:57:00.964Z,1000.25
2017-05-26T13:58:11.326Z,1000.28
2017-05-26T13:59:21.680Z,1000.21
2017-05-26T14:00:32.039Z,1000.34
2017-05-26T14:01:42.424Z,1000.29
2017-05-26T14:02:52.798Z,1000.29
2017-05-26T14:04:03.202Z,1000.19
2017-05-26T14:05:13.571Z,1000.21
2017-05-26T14:06:23.947Z,1000.13
2017-05-26T14:07:33.998Z,1000.14
2017-05-26T14:08:44.368Z,1000.13
2017-05-26T14:09:54.163Z,1000.13
2017-05-26T14:11:04.535Z,1000.14
2017-05-26T14:12:14.897Z,1000.14
2017-05-26T14:13:25.258Z,1000.2
2017-05-26T14:14:35.302Z,1000.19
2017-05-26T14:15:45.355Z,1000.13
2017-05-26T14:16:55.090Z,1000.11
2017-05-26T14:18:05.139Z,1000.13
2017-05-26T14:19:15.513Z,1000.19
2017-05-26T14:20:25.546Z,1000.14
2017-05-26T14:21:35.585Z,1000.16
2017-05-26T14:22:45.629Z,1000.17
2017-05-26T14:23:56.007Z,1000.14
2017-05-26T14:25:06.055Z,1000.12
2017-05-26T14:26:16.414Z,1000.18
2017-05-26T14:27:25.837Z,1000.15
2017-05-26T14:28:35.879Z,1000.01
2017-05-26T14:29:46.314Z,1000.06
2017-05-26T14:30:56.675Z,1000.08
2017-05-26T14:32:07.048Z,1000.05
2017-05-26T14:33:17.435Z,1000.02
2017-05-26T14:34:27.800Z,1000.04
2017-05-26T14:35:38.179Z,999.99
2017-05-26T14:36:48.534Z,1000.02
2017-05-26T14:37:57.961Z,1000.04
2017-05-26T14:39:07.693Z,1000.1
2017-05-26T14:40:17.780Z,1000.03
2017-05-26T14:41:27.831Z,999.97